This is the latest recevied weather packets stored in our database for station/object VA7NEZ. If no packets are shown the sender has not sent any weather packets the latest 1 day(s).
| Time | Temp. | Humidity | Pressure | Rain* | Wind** | Luminosity | Snow |
|---|---|---|---|---|---|---|---|
| 1778057262 | 11.67° C | 55% | 1011.7 hPa | 0 mm | 0 m/s | - | - |
| 1778056737 | 12.22° C | 53% | 1011.6 hPa | 0 mm | 0 m/s | - | - |
| 1778056187 | 12.22° C | 53% | 1011.5 hPa | 0 mm | 0 m/s | - | - |
| 1778054634 | 12.78° C | 53% | 1011.5 hPa | 0 mm | 0 m/s | - | - |
| 1778054092 | 0° C | 100% | 1011.5 hPa | 0 mm | 0 m/s | - | - |
| 1778052957 | 12.78° C | 55% | 1011.4 hPa | 0 mm | 0 m/s | - | - |
| 1778052367 | 13.33° C | 53% | 1011.5 hPa | 0 mm | 0 m/s | - | - |
| 1778051812 | 13.33° C | 52% | 1011.4 hPa | 0 mm | 0 m/s | - | - |
| 1778051217 | 0° C | 100% | 1011.1 hPa | 0 mm | 0 m/s | - | - |
| 1778050707 | 13.89° C | 57% | 1011.2 hPa | 0 mm | 0 m/s | - | - |
| 1778050146 | 13.89° C | 54% | 1011.3 hPa | 0 mm | 0 m/s | - | - |
| 1778049567 | 14.44° C | 54% | 1011.1 hPa | 0 mm | 0 m/s | - | - |
| 1778048992 | 14.44° C | 50% | 1011 hPa | 0 mm | 0 m/s | - | - |
| 1778048417 | 15° C | 49% | 1011 hPa | 0 mm | 0 m/s | - | - |
| 1778047832 | 15.56° C | 48% | 1010.8 hPa | 0 mm | 0 m/s | - | - |
| 1778047261 | 15.56° C | 45% | 1010.9 hPa | 0 mm | 0 m/s | - | - |
| 1778046721 | 15.56° C | 47% | 1010.8 hPa | 0 mm | 0 m/s | - | - |
| 1778046243 | 16.11° C | 45% | 1010.7 hPa | 0 mm | 0 m/s | - | - |
| 1778044523 | 0° C | 100% | 1010.7 hPa | 0 mm | 0 m/s | - | - |
| 1778043992 | 17.78° C | 48% | 1010.6 hPa | 0 mm | 0 m/s | - | - |
| 1778043421 | 17.78° C | 44% | 1010.8 hPa | 0 mm | 0 m/s | - | - |
| 1778042356 | 18.89° C | 41% | 1010.5 hPa | 0 mm | 0 m/s | - | - |
| 1778041307 | 20° C | 38% | 1010 hPa | 0 mm | 0 m/s | - | - |
| 1778040795 | 20.56° C | 39% | 1010 hPa | 0 mm | 0 m/s | - | - |
| 1778040296 | 20.56° C | 36% | 1010 hPa | 0 mm | 0 m/s | - | - |
* Rain latest hour (hover to see other rain measurements)
** Current wind speed in m/s (hover to see current wind gust speed)